Terminal Aerodrome Forecast
Issued by NWS

Home | Current Version | Previous Version | Text Only | Print | Product List | Glossary On
Versions: 1 2 3 4 5 6 7 8 9 10 11 12 13 14
000
FTUS43 KDTX 172300
TAFMBS
TAF
KMBS 172321Z 1800/1824 28006KT P6SM SKC
     FM180500 01006KT P6SM SCT012 BKN060
     FM180800 02007KT P6SM OVC012
     FM181200 05009KT P6SM BKN024
     FM181900 05008KT P6SM BKN040=

USA.gov is the U.S. government's official web portal to all federal, state and local government web resources and services.